Time;durP1;ratioP1;P1;durP2;ratioP2;P2;SDS_P1;SDS_P2;PMS_P1;PMS_P2;Temp;Humidity;BMP_temperature;BMP_pressure;BME280_temperature;BME280_humidity;BME280_pressure;Samples;Min_cycle;Max_cycle;Signal;HPM_P1;HPM_P2
2023/10/22 00:00:40;;;;;;;28.63;5.40;;;13.70;99.90;;;;;;4215778;28;20064;-52
2023/10/22 00:02:42;;;;;;;27.60;5.30;;;13.70;99.90;;;;;;4229632;28;20044;-53
2023/10/22 00:04:45;;;;;;;22.45;4.88;;;13.70;99.90;;;;;;4215037;28;20478;-53
2023/10/22 00:06:47;;;;;;;28.35;5.55;;;13.70;99.90;;;;;;4219440;28;20097;-54
2023/10/22 00:08:49;;;;;;;21.52;5.18;;;13.80;99.90;;;;;;4223550;28;20055;-52
2023/10/22 00:10:53;;;;;;;21.23;4.97;;;13.80;99.90;;;;;;4215471;28;20048;-53
2023/10/22 00:12:55;;;;;;;20.92;4.68;;;13.80;99.90;;;;;;4209445;28;20067;-53
2023/10/22 00:14:57;;;;;;;25.45;5.70;;;13.80;99.90;;;;;;4215526;28;20140;-53
2023/10/22 00:16:59;;;;;;;24.92;5.25;;;13.80;99.90;;;;;;4218403;28;20123;-53
2023/10/22 00:19:01;;;;;;;25.45;4.80;;;13.90;99.90;;;;;;4232207;28;20043;-53
2023/10/22 00:21:07;;;;;;;28.52;5.60;;;13.90;99.90;;;;;;4232283;28;20044;-53
2023/10/22 00:23:09;;;;;;;25.58;5.68;;;13.80;99.90;;;;;;4225492;28;20039;-53
2023/10/22 00:25:11;;;;;;;29.77;5.70;;;13.80;99.90;;;;;;4210952;28;20236;-55
2023/10/22 00:27:14;;;;;;;27.23;5.00;;;13.80;99.90;;;;;;4219209;28;20539;-56
2023/10/22 00:29:17;;;;;;;26.50;5.43;;;13.80;99.90;;;;;;4225575;28;20047;-55
2023/10/22 00:31:20;;;;;;;21.87;4.90;;;13.90;99.90;;;;;;4221098;28;20122;-56
2023/10/22 00:33:23;;;;;;;22.33;5.22;;;13.80;99.90;;;;;;4227074;28;20483;-55
2023/10/22 00:35:25;;;;;;;15.82;4.30;;;13.90;99.90;;;;;;4217116;28;20655;-54
2023/10/22 00:37:29;;;;;;;26.00;4.65;;;13.90;99.90;;;;;;4216243;28;20044;-54
2023/10/22 00:39:31;;;;;;;26.20;5.55;;;13.80;99.90;;;;;;4220447;28;20070;-55
2023/10/22 00:41:33;;;;;;;28.92;4.80;;;13.80;99.90;;;;;;4231675;28;20070;-54
2023/10/22 00:43:36;;;;;;;23.60;4.95;;;13.80;99.90;;;;;;4222159;28;20467;-55
2023/10/22 00:45:38;;;;;;;30.35;5.97;;;13.80;99.90;;;;;;4227886;28;20043;-54
2023/10/22 00:47:41;;;;;;;29.40;6.05;;;13.80;99.90;;;;;;4229195;28;20049;-54
2023/10/22 00:49:44;;;;;;;23.35;5.20;;;13.90;99.90;;;;;;4219884;28;20392;-56
2023/10/22 00:51:50;;;;;;;21.33;5.00;;;13.80;99.90;;;;;;4226523;28;20070;-55
2023/10/22 00:53:52;;;;;;;22.48;4.95;;;13.80;99.90;;;;;;4222524;28;20458;-55
2023/10/22 00:55:54;;;;;;;24.00;5.13;;;13.80;99.90;;;;;;4227694;28;20086;-56
2023/10/22 00:57:57;;;;;;;27.45;5.93;;;13.90;99.90;;;;;;4229873;28;20039;-55
2023/10/22 01:00:00;;;;;;;25.45;5.68;;;13.90;99.90;;;;;;4220014;28;20039;-56
2023/10/22 01:02:03;;;;;;;21.73;5.47;;;13.80;99.90;;;;;;4224151;28;20047;-53
2023/10/22 01:04:05;;;;;;;27.05;5.43;;;13.80;99.90;;;;;;4221672;28;20070;-54
2023/10/22 01:06:08;;;;;;;27.20;5.45;;;13.80;99.90;;;;;;4219261;28;20044;-55
2023/10/22 01:08:11;;;;;;;33.92;5.78;;;13.80;99.90;;;;;;4197419;28;20048;-56
2023/10/22 01:10:13;;;;;;;26.85;5.30;;;13.80;99.90;;;;;;4225514;28;20073;-56
2023/10/22 01:12:15;;;;;;;29.85;5.45;;;13.80;99.90;;;;;;4214516;28;20055;-55
2023/10/22 01:14:17;;;;;;;23.35;4.68;;;13.80;99.90;;;;;;4220664;28;20097;-56
2023/10/22 01:16:21;;;;;;;24.30;6.00;;;13.80;99.90;;;;;;4220150;28;20568;-55
2023/10/22 01:18:24;;;;;;;22.85;6.05;;;13.90;99.90;;;;;;4226111;28;20082;-53
2023/10/22 01:20:26;;;;;;;23.45;4.90;;;13.80;99.90;;;;;;4225769;28;20067;-56
2023/10/22 01:22:28;;;;;;;28.55;5.97;;;13.80;99.90;;;;;;4213915;28;20071;-55
2023/10/22 01:24:33;;;;;;;25.30;5.72;;;13.80;99.90;;;;;;4206986;28;20047;-55
2023/10/22 01:26:39;;;;;;;;;;;13.80;99.90;;;;;;4230847;28;20054;-56
2023/10/22 01:28:41;;;;;;;27.38;5.07;;;13.80;99.90;;;;;;4230521;28;19923;-55
2023/10/22 01:30:43;;;;;;;29.63;5.22;;;13.80;99.90;;;;;;4226178;28;20075;-55
2023/10/22 01:32:46;;;;;;;27.35;5.43;;;13.70;99.90;;;;;;4230637;28;20492;-55
2023/10/22 01:34:48;;;;;;;28.98;5.18;;;13.70;99.90;;;;;;4226220;28;20048;-55
2023/10/22 01:36:50;;;;;;;30.58;6.07;;;13.70;99.90;;;;;;4221564;28;20079;-54
2023/10/22 01:38:52;;;;;;;24.98;5.75;;;13.70;99.90;;;;;;4213722;28;20052;-55
2023/10/22 01:40:56;;;;;;;25.30;4.95;;;13.70;99.90;;;;;;4226317;28;20382;-56
2023/10/22 01:42:59;;;;;;;22.93;4.87;;;13.70;99.90;;;;;;4214143;28;20443;-56
2023/10/22 01:45:01;;;;;;;19.90;4.75;;;13.70;99.90;;;;;;4218191;28;20059;-54
2023/10/22 01:47:03;;;;;;;30.52;6.10;;;13.70;99.90;;;;;;4223903;28;20040;-56
2023/10/22 01:49:05;;;;;;;24.70;5.38;;;13.70;99.90;;;;;;4214143;28;20060;-56
2023/10/22 01:51:07;;;;;;;30.45;6.38;;;13.70;99.90;;;;;;4226476;28;20400;-56
2023/10/22 01:53:09;;;;;;;29.73;5.38;;;13.70;99.90;;;;;;4230746;28;20044;-56
2023/10/22 01:55:11;;;;;;;21.13;4.97;;;13.70;99.90;;;;;;4210267;28;20050;-56
2023/10/22 01:57:18;;;;;;;24.52;5.68;;;13.70;99.90;;;;;;4221241;28;20039;-55
2023/10/22 01:59:20;;;;;;;23.38;5.05;;;13.70;99.90;;;;;;4230743;28;20044;-56
2023/10/22 02:01:22;;;;;;;23.27;4.45;;;13.70;99.90;;;;;;4227333;28;20072;-55
2023/10/22 02:03:24;;;;;;;27.77;5.75;;;13.70;99.90;;;;;;4228952;28;20067;-56
2023/10/22 02:05:26;;;;;;;24.95;4.63;;;13.70;99.90;;;;;;4228617;28;20040;-56
2023/10/22 02:07:29;;;;;;;21.15;4.93;;;13.70;99.90;;;;;;4219365;28;20071;-56
2023/10/22 02:09:31;;;;;;;25.02;4.93;;;13.70;99.90;;;;;;4230536;28;20123;-56
2023/10/22 02:11:33;;;;;;;23.45;5.07;;;13.70;99.90;;;;;;4220731;28;20432;-56
2023/10/22 02:13:37;;;;;;;23.98;4.50;;;13.70;99.90;;;;;;4228080;28;20054;-53
2023/10/22 02:15:39;;;;;;;18.95;4.32;;;13.70;99.90;;;;;;4229444;28;20051;-56
2023/10/22 02:17:42;;;;;;;27.73;5.13;;;13.70;99.90;;;;;;4221062;28;20081;-56
2023/10/22 02:19:44;;;;;;;23.63;5.47;;;13.70;99.90;;;;;;4230186;28;20047;-56
2023/10/22 02:21:46;;;;;;;22.40;5.00;;;13.60;99.90;;;;;;4203375;28;20098;-56
2023/10/22 02:23:48;;;;;;;22.92;4.68;;;13.60;99.90;;;;;;4217440;28;20820;-56
2023/10/22 02:25:51;;;;;;;21.70;4.80;;;13.60;99.90;;;;;;4228095;28;20048;-56
2023/10/22 02:27:53;;;;;;;22.83;5.53;;;13.70;99.90;;;;;;4224680;28;20067;-55
2023/10/22 02:29:57;;;;;;;29.20;5.13;;;13.70;99.90;;;;;;4213308;28;20048;-55
2023/10/22 02:31:59;;;;;;;23.58;4.43;;;13.70;99.90;;;;;;4217865;28;20067;-56
2023/10/22 02:34:02;;;;;;;22.92;5.20;;;13.70;99.90;;;;;;4225353;28;20313;-54
2023/10/22 02:36:06;;;;;;;20.58;4.43;;;13.60;99.90;;;;;;4228750;28;20057;-55
2023/10/22 02:38:10;;;;;;;20.27;5.10;;;13.70;99.90;;;;;;4218650;28;20052;-56
2023/10/22 02:40:12;;;;;;;24.65;5.88;;;13.60;99.90;;;;;;4230229;28;20469;-56
2023/10/22 02:42:14;;;;;;;23.95;5.05;;;13.60;99.90;;;;;;4225864;28;20117;-56
2023/10/22 02:44:17;;;;;;;22.90;4.30;;;13.70;99.90;;;;;;4218737;28;20062;-55
2023/10/22 02:46:20;;;;;;;26.13;4.97;;;13.60;99.90;;;;;;4214458;28;20044;-56
2023/10/22 02:48:25;;;;;;;20.67;4.53;;;13.60;99.90;;;;;;4224467;28;20063;-58
2023/10/22 02:50:27;;;;;;;30.60;5.80;;;13.70;99.90;;;;;;4219099;28;20087;-56
2023/10/22 02:52:29;;;;;;;22.25;5.15;;;13.60;99.90;;;;;;4223870;28;20040;-56
2023/10/22 02:54:31;;;;;;;21.02;4.00;;;13.70;99.90;;;;;;4223258;28;20051;-56
2023/10/22 02:56:34;;;;;;;22.70;5.28;;;13.60;99.90;;;;;;4229651;28;20063;-56
2023/10/22 02:58:38;;;;;;;22.30;4.63;;;13.60;99.90;;;;;;4217337;28;20048;-56
2023/10/22 03:00:40;;;;;;;23.92;4.45;;;13.60;99.90;;;;;;4211785;28;20051;-56
2023/10/22 03:02:44;;;;;;;20.55;5.13;;;13.60;99.90;;;;;;4221637;28;20054;-55
2023/10/22 03:04:46;;;;;;;18.80;4.95;;;13.60;99.90;;;;;;4220614;28;20071;-56
2023/10/22 03:06:48;;;;;;;25.23;5.18;;;13.60;99.90;;;;;;4213166;28;20460;-55
2023/10/22 03:08:50;;;;;;;21.20;4.47;;;13.60;99.90;;;;;;4216729;28;20476;-55
2023/10/22 03:10:52;;;;;;;26.08;4.85;;;13.70;99.90;;;;;;4216150;28;20044;-56
2023/10/22 03:12:57;;;;;;;25.98;4.90;;;13.60;99.90;;;;;;4201216;28;20472;-56
2023/10/22 03:14:59;;;;;;;23.85;5.30;;;13.70;99.90;;;;;;4207403;28;20135;-53
2023/10/22 03:17:02;;;;;;;23.52;5.03;;;13.70;99.90;;;;;;4217310;28;20058;-54
2023/10/22 03:19:06;;;;;;;26.40;5.35;;;13.60;99.90;;;;;;4228154;28;20044;-56
2023/10/22 03:21:11;;;;;;;25.70;4.35;;;13.70;99.90;;;;;;4217140;28;20051;-56
2023/10/22 03:23:13;;;;;;;22.25;4.95;;;13.60;99.90;;;;;;4220029;28;20127;-55
2023/10/22 03:25:15;;;;;;;23.58;4.70;;;13.60;99.90;;;;;;4226049;28;20047;-57
2023/10/22 03:27:18;;;;;;;22.00;4.60;;;13.60;99.90;;;;;;4231045;28;20051;-56
2023/10/22 03:29:20;;;;;;;21.40;4.13;;;13.50;99.90;;;;;;4228677;28;20415;-57
2023/10/22 03:31:22;;;;;;;24.35;5.05;;;13.50;99.90;;;;;;4217212;28;20142;-56
2023/10/22 03:33:24;;;;;;;29.23;6.32;;;13.50;99.90;;;;;;4199672;28;20036;-55
2023/10/22 03:35:27;;;;;;;22.98;4.35;;;13.50;99.90;;;;;;4226442;28;20051;-56
2023/10/22 03:37:30;;;;;;;21.33;4.68;;;13.50;99.90;;;;;;4215986;28;20097;-56
2023/10/22 03:39:33;;;;;;;22.02;4.30;;;13.50;99.90;;;;;;4225336;28;20051;-56
2023/10/22 03:41:35;;;;;;;19.73;4.28;;;13.50;99.90;;;;;;4218203;28;20143;-56
2023/10/22 03:43:37;;;;;;;17.08;3.85;;;13.50;99.90;;;;;;4216773;28;20044;-56
2023/10/22 03:45:39;;;;;;;19.85;4.05;;;13.50;99.90;;;;;;4227093;28;20413;-55
2023/10/22 03:47:41;;;;;;;19.60;3.97;;;13.60;99.90;;;;;;4215600;28;20135;-56
2023/10/22 03:49:43;;;;;;;22.60;4.22;;;13.60;99.90;;;;;;4224094;28;20071;-57
2023/10/22 03:51:46;;;;;;;14.98;3.72;;;13.50;99.90;;;;;;4228478;28;20067;-55
2023/10/22 03:53:49;;;;;;;17.17;3.75;;;13.50;99.90;;;;;;4230882;28;20051;-56
2023/10/22 03:55:51;;;;;;;17.17;3.85;;;13.50;99.90;;;;;;4220919;28;20044;-56
2023/10/22 03:57:53;;;;;;;19.80;3.88;;;13.50;99.90;;;;;;4232665;28;20603;-56
2023/10/22 03:59:55;;;;;;;16.52;3.47;;;13.50;99.90;;;;;;4227346;28;20059;-56
2023/10/22 04:01:57;;;;;;;21.15;4.38;;;13.50;99.90;;;;;;4227242;28;20046;-56
2023/10/22 04:03:59;;;;;;;16.88;3.80;;;13.50;99.90;;;;;;4230885;28;20123;-55
2023/10/22 04:06:02;;;;;;;16.23;3.92;;;13.40;99.90;;;;;;4221069;28;20048;-56
2023/10/22 04:08:07;;;;;;;15.93;3.95;;;13.50;99.90;;;;;;4232621;28;20047;-56
2023/10/22 04:10:10;;;;;;;16.50;3.22;;;13.50;99.90;;;;;;4225942;28;20048;-57
2023/10/22 04:12:12;;;;;;;12.30;3.33;;;13.50;99.90;;;;;;4207664;28;20044;-56
2023/10/22 04:14:14;;;;;;;16.02;4.10;;;13.50;99.90;;;;;;4230866;28;20422;-56
2023/10/22 04:16:17;;;;;;;20.90;3.45;;;13.50;99.90;;;;;;4220785;28;20040;-56
2023/10/22 04:18:19;;;;;;;14.40;3.45;;;13.50;99.90;;;;;;4232203;28;20040;-56
2023/10/22 04:20:22;;;;;;;18.30;3.63;;;13.40;99.90;;;;;;4207478;28;20095;-56
2023/10/22 04:22:24;;;;;;;20.67;3.67;;;13.50;99.90;;;;;;4223780;28;20088;-56
2023/10/22 04:24:27;;;;;;;18.17;4.00;;;13.40;99.90;;;;;;4223134;28;20043;-55
2023/10/22 04:26:29;;;;;;;26.58;3.33;;;13.50;99.90;;;;;;4229588;28;20044;-56
2023/10/22 04:28:31;;;;;;;24.17;4.47;;;13.50;99.90;;;;;;4215729;28;20075;-56
2023/10/22 04:30:35;;;;;;;16.38;3.38;;;13.50;99.90;;;;;;4218774;28;20143;-56
2023/10/22 04:32:37;;;;;;;13.33;2.57;;;13.50;99.90;;;;;;4223395;28;20079;-57
2023/10/22 04:34:39;;;;;;;15.48;3.95;;;13.50;99.90;;;;;;4232193;28;20047;-56
2023/10/22 04:36:42;;;;;;;16.08;3.33;;;13.50;99.90;;;;;;4219518;28;20047;-56
2023/10/22 04:38:44;;;;;;;17.77;3.28;;;13.50;99.90;;;;;;4231390;28;20044;-56
2023/10/22 04:40:47;;;;;;;16.35;3.42;;;13.50;99.90;;;;;;4228427;28;20473;-56
2023/10/22 04:42:50;;;;;;;16.08;3.42;;;13.50;99.90;;;;;;4222060;28;20040;-55
2023/10/22 04:44:52;;;;;;;18.77;3.90;;;13.50;99.90;;;;;;4231833;28;20046;-56
2023/10/22 04:46:54;;;;;;;15.25;3.45;;;13.50;99.90;;;;;;4220279;28;20063;-57
2023/10/22 04:48:57;;;;;;;17.63;3.60;;;13.50;99.90;;;;;;4229965;28;20234;-56
2023/10/22 04:51:03;;;;;;;18.23;3.35;;;13.50;99.90;;;;;;4230005;28;20046;-56
2023/10/22 04:53:06;;;;;;;21.83;4.25;;;13.50;99.90;;;;;;4221437;28;20043;-56
2023/10/22 04:55:11;;;;;;;18.00;3.30;;;13.40;99.90;;;;;;4213308;28;20113;-56
2023/10/22 04:57:14;;;;;;;;;;;13.40;99.90;;;;;;4220868;28;20047;-56
2023/10/22 04:59:16;;;;;;;23.95;4.25;;;13.40;99.90;;;;;;4229928;28;19924;-57
2023/10/22 05:01:18;;;;;;;16.38;3.88;;;13.40;99.90;;;;;;4228922;28;20055;-55
2023/10/22 05:03:20;;;;;;;17.83;4.10;;;13.40;99.90;;;;;;4207337;28;20040;-55
2023/10/22 05:05:23;;;;;;;17.00;4.30;;;13.40;99.90;;;;;;4214434;28;20044;-56
2023/10/22 05:07:25;;;;;;;16.83;3.85;;;13.50;99.90;;;;;;4223808;28;20174;-55
2023/10/22 05:09:27;;;;;;;23.23;4.60;;;13.40;99.90;;;;;;4217116;28;20086;-56
2023/10/22 05:11:29;;;;;;;22.25;4.10;;;13.40;99.90;;;;;;4215483;28;20044;-55
2023/10/22 05:13:33;;;;;;;18.65;3.83;;;13.50;99.90;;;;;;4225362;28;20040;-52
2023/10/22 05:15:35;;;;;;;21.38;4.38;;;13.50;99.90;;;;;;4214305;28;20056;-53
2023/10/22 05:17:37;;;;;;;20.23;3.80;;;13.50;99.90;;;;;;4222351;28;20115;-55
2023/10/22 05:19:39;;;;;;;16.95;4.55;;;13.50;99.90;;;;;;4230690;28;20048;-55
2023/10/22 05:21:43;;;;;;;21.30;4.43;;;13.50;99.90;;;;;;4229508;28;20044;-53
2023/10/22 05:23:46;;;;;;;20.38;3.75;;;13.50;99.90;;;;;;4218873;28;20031;-56
2023/10/22 05:25:48;;;;;;;21.23;4.10;;;13.50;99.90;;;;;;4221087;28;20048;-56
2023/10/22 05:27:50;;;;;;;18.95;3.63;;;13.60;99.90;;;;;;4205612;28;20046;-56
2023/10/22 05:29:53;;;;;;;16.90;4.05;;;13.50;99.90;;;;;;4225429;28;20044;-53
2023/10/22 05:31:55;;;;;;;24.35;4.88;;;13.50;99.90;;;;;;4229246;28;20330;-53
2023/10/22 05:33:57;;;;;;;21.80;4.22;;;13.50;99.90;;;;;;4225295;28;20071;-53
2023/10/22 05:35:59;;;;;;;18.05;3.78;;;13.50;99.90;;;;;;4214174;28;20481;-53
2023/10/22 05:38:02;;;;;;;15.60;3.80;;;13.50;99.90;;;;;;4219521;28;20043;-53
2023/10/22 05:40:06;;;;;;;14.88;3.55;;;13.50;99.90;;;;;;4220295;28;20044;-55
2023/10/22 05:42:08;;;;;;;16.35;3.72;;;13.60;99.90;;;;;;4214040;28;20055;-56
2023/10/22 05:44:10;;;;;;;19.80;4.38;;;13.50;99.90;;;;;;4225677;28;20086;-55
2023/10/22 05:46:13;;;;;;;16.33;3.97;;;13.50;99.90;;;;;;4214064;28;20040;-53
2023/10/22 05:48:16;;;;;;;22.73;3.42;;;13.60;99.90;;;;;;4218757;28;20051;-54
2023/10/22 05:50:18;;;;;;;25.48;4.38;;;13.60;99.90;;;;;;4226467;28;20043;-53
2023/10/22 05:52:20;;;;;;;23.48;4.68;;;13.50;99.90;;;;;;4230202;28;20040;-52
2023/10/22 05:54:22;;;;;;;23.13;4.40;;;13.60;99.90;;;;;;4226230;28;20044;-53
2023/10/22 05:56:26;;;;;;;17.00;4.35;;;13.50;99.90;;;;;;4213627;28;20048;-55
2023/10/22 05:58:28;;;;;;;17.13;4.22;;;13.50;99.90;;;;;;4217232;28;20048;-56
2023/10/22 06:00:30;;;;;;;20.02;3.83;;;13.50;99.90;;;;;;4222425;28;20143;-55
2023/10/22 06:02:33;;;;;;;19.75;4.20;;;13.50;99.90;;;;;;4224706;28;20047;-54
2023/10/22 06:04:35;;;;;;;24.38;4.00;;;13.50;99.90;;;;;;4218587;28;20078;-55
2023/10/22 06:06:38;;;;;;;20.45;4.03;;;13.50;99.90;;;;;;4229884;28;20040;-54
2023/10/22 06:08:42;;;;;;;18.02;3.67;;;13.50;99.90;;;;;;4227288;28;20077;-55
2023/10/22 06:10:46;;;;;;;19.92;4.03;;;13.50;99.90;;;;;;4220779;28;20056;-53
2023/10/22 06:12:49;;;;;;;16.38;3.70;;;13.50;99.90;;;;;;4230113;28;20043;-52
2023/10/22 06:14:51;;;;;;;19.13;4.05;;;13.50;99.90;;;;;;4218942;28;20044;-54
2023/10/22 06:16:54;;;;;;;17.70;3.85;;;13.50;99.90;;;;;;4228851;28;20485;-55
2023/10/22 06:18:58;;;;;;;15.10;3.65;;;13.50;99.90;;;;;;4225712;28;20044;-54
2023/10/22 06:21:08;;;;;;;12.13;3.60;;;13.60;99.90;;;;;;4223812;28;20040;-55
2023/10/22 06:23:10;;;;;;;21.35;4.22;;;13.60;99.90;;;;;;4212987;28;20492;-55
2023/10/22 06:25:13;;;;;;;19.60;3.50;;;13.60;99.90;;;;;;4206888;28;20075;-55
2023/10/22 06:27:15;;;;;;;20.13;3.50;;;13.60;99.90;;;;;;4195995;28;20049;-55
2023/10/22 06:29:17;;;;;;;19.30;3.83;;;13.60;99.90;;;;;;4214932;28;20090;-55
2023/10/22 06:31:19;;;;;;;15.57;3.28;;;13.60;99.90;;;;;;4229715;28;20119;-55
2023/10/22 06:33:22;;;;;;;18.70;3.92;;;13.60;99.90;;;;;;4230046;28;20051;-55
2023/10/22 06:35:28;;;;;;;21.02;3.90;;;13.60;99.90;;;;;;4225701;28;20135;-53
2023/10/22 06:37:30;;;;;;;15.27;3.10;;;13.60;99.90;;;;;;4214996;28;20454;-53
2023/10/22 06:39:32;;;;;;;17.17;3.53;;;13.60;99.90;;;;;;4214239;28;20123;-53
2023/10/22 06:41:34;;;;;;;20.27;3.78;;;13.70;99.90;;;;;;4218799;28;20086;-53
2023/10/22 06:43:36;;;;;;;18.85;4.00;;;13.70;99.90;;;;;;4230280;28;20066;-53
2023/10/22 06:45:39;;;;;;;16.17;3.50;;;13.70;99.90;;;;;;4223457;28;20047;-53
2023/10/22 06:47:41;;;;;;;18.63;3.67;;;13.70;99.90;;;;;;4230193;28;20050;-53
2023/10/22 06:49:45;;;;;;;;;;;13.70;99.90;;;;;;4232243;28;20135;-53
2023/10/22 06:51:49;;;;;;;12.85;3.20;;;13.70;99.90;;;;;;4225272;28;20010;-52
2023/10/22 06:53:51;;;;;;;16.42;3.40;;;13.70;99.90;;;;;;4233761;28;20392;-52
2023/10/22 06:55:53;;;;;;;14.77;3.00;;;13.70;99.90;;;;;;4231980;28;20052;-53
2023/10/22 06:57:55;;;;;;;15.77;2.97;;;13.70;99.90;;;;;;4220707;28;20040;-55
2023/10/22 06:59:58;;;;;;;20.85;3.70;;;13.80;99.90;;;;;;4217975;28;20040;-53
2023/10/22 07:02:01;;;;;;;14.13;3.17;;;13.80;99.90;;;;;;4192895;28;20072;-59
2023/10/22 07:04:03;;;;;;;12.45;3.25;;;13.80;99.90;;;;;;4235655;28;20047;-53
2023/10/22 07:06:07;;;;;;;11.77;2.88;;;13.80;99.90;;;;;;4228140;28;20040;-53
2023/10/22 07:08:10;;;;;;;15.98;3.10;;;13.70;99.90;;;;;;4229202;28;20040;-58
2023/10/22 07:10:12;;;;;;;12.35;2.90;;;13.80;99.90;;;;;;4231990;28;20043;-53
2023/10/22 07:12:15;;;;;;;13.95;2.90;;;13.70;99.90;;;;;;4222082;28;20048;-53
2023/10/22 07:14:17;;;;;;;14.38;2.90;;;13.70;99.90;;;;;;4233250;28;20039;-53
2023/10/22 07:16:19;;;;;;;12.50;2.80;;;13.80;99.90;;;;;;4228684;28;20039;-55
2023/10/22 07:18:22;;;;;;;17.08;3.35;;;13.80;99.90;;;;;;4232874;28;20044;-54
2023/10/22 07:20:25;;;;;;;13.07;2.45;;;13.80;99.90;;;;;;4232153;28;20453;-55
2023/10/22 07:22:27;;;;;;;13.60;2.63;;;13.80;99.90;;;;;;4221143;28;20100;-56
2023/10/22 07:24:32;;;;;;;8.15;2.10;;;13.90;99.90;;;;;;4224244;28;20519;-54
2023/10/22 07:26:34;;;;;;;10.00;2.38;;;13.80;99.90;;;;;;4228671;28;20047;-55
2023/10/22 07:28:41;;;;;;;11.80;2.80;;;13.90;99.90;;;;;;4223107;28;20040;-55
2023/10/22 07:30:47;;;;;;;11.45;2.63;;;13.80;99.90;;;;;;4216379;28;20454;-52
2023/10/22 07:32:50;;;;;;;10.55;2.70;;;13.80;99.90;;;;;;4222932;28;20412;-53
2023/10/22 07:34:53;;;;;;;9.90;2.30;;;13.90;99.90;;;;;;4233715;28;20444;-53
2023/10/22 07:36:55;;;;;;;12.05;2.90;;;13.90;99.90;;;;;;4229063;28;20071;-56
2023/10/22 07:38:57;;;;;;;9.98;2.33;;;13.90;99.90;;;;;;4226699;28;20044;-52
2023/10/22 07:41:01;;;;;;;12.27;3.15;;;13.90;99.90;;;;;;4233831;28;20078;-53
2023/10/22 07:43:04;;;;;;;12.52;2.42;;;13.80;99.90;;;;;;4221486;28;20106;-55
2023/10/22 07:45:08;;;;;;;10.63;2.42;;;13.80;99.90;;;;;;4233309;28;20132;-55
2023/10/22 07:47:10;;;;;;;12.23;2.78;;;13.80;99.90;;;;;;4211550;28;20040;-53
2023/10/22 07:49:12;;;;;;;16.05;2.92;;;13.80;99.90;;;;;;4224784;28;20556;-53
2023/10/22 07:51:16;;;;;;;13.07;2.20;;;13.80;99.90;;;;;;4225715;28;20157;-53
2023/10/22 07:53:18;;;;;;;16.67;2.85;;;13.90;99.90;;;;;;4228879;28;20093;-51
2023/10/22 07:55:21;;;;;;;11.90;2.80;;;13.90;99.90;;;;;;4232669;28;20514;-55
2023/10/22 07:57:25;;;;;;;11.30;2.97;;;13.80;99.90;;;;;;4228667;28;20089;-55
2023/10/22 07:59:27;;;;;;;7.50;2.20;;;13.80;99.90;;;;;;4224296;28;20044;-57
2023/10/22 08:01:29;;;;;;;15.90;3.13;;;13.80;99.90;;;;;;4217864;28;20048;-54
2023/10/22 08:03:33;;;;;;;15.70;3.67;;;13.80;99.90;;;;;;4220323;28;20047;-55
2023/10/22 08:05:35;;;;;;;14.45;3.15;;;13.80;99.90;;;;;;4231583;28;20101;-52
2023/10/22 08:07:37;;;;;;;16.02;3.58;;;13.80;99.90;;;;;;4229870;28;20067;-56
2023/10/22 08:09:39;;;;;;;12.82;2.88;;;13.80;99.90;;;;;;4222381;28;20051;-54
2023/10/22 08:11:41;;;;;;;10.27;3.10;;;13.80;99.90;;;;;;4232196;28;20123;-55
2023/10/22 08:13:44;;;;;;;14.25;3.53;;;13.80;99.90;;;;;;4221853;28;20050;-52
2023/10/22 08:15:47;;;;;;;13.77;3.83;;;13.90;99.90;;;;;;4230056;28;20040;-51
2023/10/22 08:17:49;;;;;;;16.45;3.63;;;13.80;99.90;;;;;;4227878;28;20044;-52
2023/10/22 08:19:51;;;;;;;19.00;3.97;;;13.90;99.90;;;;;;4220867;28;20043;-53
2023/10/22 08:21:53;;;;;;;16.58;3.35;;;13.90;99.90;;;;;;4232090;28;20047;-53
2023/10/22 08:23:55;;;;;;;16.90;3.40;;;13.90;99.90;;;;;;4227676;28;20098;-53
2023/10/22 08:25:57;;;;;;;18.17;3.75;;;13.90;99.90;;;;;;4222773;28;20072;-53
2023/10/22 08:28:00;;;;;;;17.50;3.95;;;14.00;99.90;;;;;;4216185;28;20113;-53
2023/10/22 08:30:05;;;;;;;16.23;4.15;;;14.00;99.90;;;;;;4226714;28;20047;-53
2023/10/22 08:32:07;;;;;;;19.27;3.20;;;14.00;99.90;;;;;;4227346;28;20044;-53
2023/10/22 08:34:10;;;;;;;22.55;4.35;;;14.10;99.90;;;;;;4227381;28;20097;-54
2023/10/22 08:36:13;;;;;;;11.88;2.70;;;14.00;99.90;;;;;;4232346;28;20055;-54
2023/10/22 08:38:16;;;;;;;13.25;3.35;;;14.10;99.90;;;;;;4230891;28;20044;-53
2023/10/22 08:40:22;;;;;;;18.58;4.07;;;14.10;99.90;;;;;;4220431;28;20088;-53
2023/10/22 08:42:24;;;;;;;16.45;3.28;;;14.10;99.90;;;;;;4232201;28;20055;-53
2023/10/22 08:44:28;;;;;;;11.32;2.92;;;14.10;99.90;;;;;;4227791;28;20052;-54
2023/10/22 08:46:33;;;;;;;18.87;4.10;;;14.20;99.90;;;;;;4219723;28;20127;-54
2023/10/22 08:48:36;;;;;;;21.58;3.30;;;14.10;99.90;;;;;;4198239;28;20072;-53
2023/10/22 08:50:41;;;;;;;18.10;3.50;;;14.10;99.90;;;;;;4229410;28;20079;-54
2023/10/22 08:52:43;;;;;;;;;;;14.20;99.90;;;;;;4232857;28;20048;-55
2023/10/22 08:54:47;;;;;;;15.18;3.10;;;14.20;99.90;;;;;;4229442;28;19990;-56
2023/10/22 08:56:50;;;;;;;14.75;3.13;;;14.10;99.90;;;;;;4221868;28;20086;-55
2023/10/22 08:58:52;;;;;;;16.35;4.47;;;14.10;99.90;;;;;;4217812;28;20398;-54
2023/10/22 09:00:54;;;;;;;14.00;3.80;;;14.20;99.90;;;;;;4226270;28;20072;-53
2023/10/22 09:02:57;;;;;;;14.85;3.05;;;14.20;99.90;;;;;;4211567;28;20059;-55
2023/10/22 09:05:00;;;;;;;13.57;3.25;;;14.30;99.90;;;;;;4225034;28;20071;-54
2023/10/22 09:07:02;;;;;;;11.75;3.70;;;14.30;99.90;;;;;;4224723;28;20086;-55
2023/10/22 09:09:04;;;;;;;17.73;4.05;;;14.40;99.90;;;;;;4230737;28;20458;-53
2023/10/22 09:11:12;;;;;;;16.48;3.58;;;14.40;99.90;;;;;;4216363;28;20457;-56
2023/10/22 09:13:16;;;;;;;19.73;6.00;;;14.50;99.90;;;;;;4231243;28;20123;-55
2023/10/22 09:15:18;;;;;;;19.30;7.10;;;14.60;99.90;;;;;;4224458;28;20442;-53
2023/10/22 09:17:20;;;;;;;17.73;4.20;;;14.60;99.90;;;;;;4220538;28;20114;-55
2023/10/22 09:19:39;;;;;;;17.73;4.47;;;14.60;99.90;;;;;;4215180;28;20063;-55
2023/10/22 09:21:42;;;;;;;17.52;5.18;;;14.70;99.90;;;;;;4225789;28;20105;-55
2023/10/22 09:23:53;;;;;;;14.73;4.20;;;14.60;99.90;;;;;;4223178;28;20526;-60
2023/10/22 09:25:56;;;;;;;12.50;3.47;;;14.70;99.90;;;;;;4220803;28;20044;-54
2023/10/22 09:28:12;;;;;;;11.25;3.60;;;14.70;99.90;;;;;;4228379;28;20040;-54
2023/10/22 09:30:14;;;;;;;17.55;3.53;;;14.80;99.90;;;;;;4230393;28;20108;-54
2023/10/22 09:32:16;;;;;;;16.33;4.03;;;14.90;99.90;;;;;;4228744;28;20060;-59
2023/10/22 09:34:25;;;;;;;13.05;3.08;;;14.90;99.90;;;;;;4231617;28;20465;-56
2023/10/22 09:36:29;;;;;;;14.55;2.92;;;14.90;99.90;;;;;;4220499;28;20071;-56
2023/10/22 09:38:42;;;;;;;10.65;2.85;;;14.90;99.90;;;;;;4229324;28;20047;-57
2023/10/22 09:40:44;;;;;;;10.00;2.80;;;14.90;99.90;;;;;;4229474;28;20400;-55
2023/10/22 09:42:47;;;;;;;8.73;2.95;;;14.90;99.90;;;;;;4231527;28;20079;-54
2023/10/22 09:44:50;;;;;;;13.68;2.72;;;14.90;99.90;;;;;;4231027;28;20043;-56
2023/10/22 09:46:52;;;;;;;11.65;2.45;;;14.90;99.90;;;;;;4202523;28;20128;-56
2023/10/22 09:48:58;;;;;;;16.40;3.10;;;15.00;99.90;;;;;;4229216;28;20055;-57
2023/10/22 09:51:03;;;;;;;13.65;2.90;;;15.00;99.90;;;;;;4226684;28;20044;-57
2023/10/22 09:53:11;;;;;;;12.82;3.50;;;15.10;99.90;;;;;;4224264;28;20508;-56
2023/10/22 09:55:14;;;;;;;11.88;2.60;;;15.10;99.90;;;;;;4214072;28;20048;-54
2023/10/22 09:57:17;;;;;;;9.93;3.40;;;15.00;99.90;;;;;;4225175;28;20043;-55
2023/10/22 09:59:22;;;;;;;13.23;3.35;;;15.10;99.90;;;;;;4214803;28;20546;-56
2023/10/22 10:01:26;;;;;;;11.43;2.78;;;15.10;99.90;;;;;;4217712;28;20043;-59
2023/10/22 10:03:31;;;;;;;10.20;2.88;;;15.10;99.90;;;;;;4223930;28;20051;-56
2023/10/22 10:05:34;;;;;;;10.80;2.40;;;15.20;99.90;;;;;;4213973;28;20404;-53
2023/10/22 10:07:38;;;;;;;9.60;2.50;;;15.20;99.90;;;;;;4196093;28;20298;-57
2023/10/22 10:09:42;;;;;;;9.93;2.90;;;15.20;99.90;;;;;;4211565;28;20044;-55
2023/10/22 10:11:45;;;;;;;9.07;2.60;;;15.20;99.90;;;;;;4229167;28;20048;-60
2023/10/22 10:13:47;;;;;;;14.05;2.50;;;15.20;99.90;;;;;;4223764;28;20217;-57
2023/10/22 10:15:58;;;;;;;14.75;3.83;;;15.30;99.90;;;;;;4214074;28;20142;-56
2023/10/22 10:18:02;;;;;;;11.18;3.00;;;15.30;99.90;;;;;;4227541;28;20043;-53
2023/10/22 10:20:23;;;;;;;12.27;3.22;;;15.30;99.90;;;;;;4230750;28;20118;-57
2023/10/22 10:22:39;;;;;;;10.23;2.83;;;15.40;99.90;;;;;;4221571;28;20048;-56
2023/10/22 10:25:31;;;;;;;11.40;2.58;;;15.40;99.90;;;;;;4226109;28;20540;-55
2023/10/22 10:27:33;;;;;;;8.77;2.33;;;15.40;99.90;;;;;;4218140;28;20046;-56
2023/10/22 10:29:35;;;;;;;13.10;2.65;;;15.50;99.90;;;;;;4203026;28;20128;-56
2023/10/22 10:31:52;;;;;;;9.95;2.35;;;15.60;99.90;;;;;;4222765;28;20061;-56
2023/10/22 10:34:01;;;;;;;10.77;2.72;;;15.60;99.90;;;;;;4225476;28;20071;-57